createdAt,value
2022-11-27T00:00:03.876Z,990.75
2022-11-27T00:01:03.822Z,990.81
2022-11-27T00:02:03.890Z,990.67
2022-11-27T00:03:04.064Z,990.55
2022-11-27T00:04:03.042Z,990.61
2022-11-27T00:05:02.984Z,990.50
2022-11-27T00:06:03.070Z,990.78
2022-11-27T00:07:03.202Z,990.61
2022-11-27T00:08:03.085Z,990.64
2022-11-27T00:09:03.115Z,990.72
2022-11-27T00:10:03.102Z,990.64
2022-11-27T00:11:03.079Z,990.72
2022-11-27T00:12:03.011Z,990.42
2022-11-27T00:13:03.056Z,990.56
2022-11-27T00:14:03.063Z,990.47
2022-11-27T00:15:03.006Z,990.53
2022-11-27T00:16:03.057Z,990.43
2022-11-27T00:17:03.059Z,990.53
2022-11-27T00:18:03.224Z,990.56
2022-11-27T00:19:03.130Z,990.53
2022-11-27T00:20:03.240Z,990.47
2022-11-27T00:21:03.208Z,990.50
2022-11-27T00:22:03.301Z,990.50
2022-11-27T00:23:03.231Z,990.40
2022-11-27T00:24:03.177Z,990.61
2022-11-27T00:25:03.144Z,990.67
2022-11-27T00:26:03.163Z,990.50
2022-11-27T00:27:03.079Z,990.62
2022-11-27T00:28:03.101Z,990.48
2022-11-27T00:29:03.254Z,990.48
2022-11-27T00:30:03.296Z,990.62
2022-11-27T00:31:03.457Z,990.43
2022-11-27T00:32:03.274Z,990.53
2022-11-27T00:33:03.290Z,990.29
2022-11-27T00:34:03.221Z,990.40
2022-11-27T00:35:03.320Z,990.29
2022-11-27T00:36:03.321Z,990.37
2022-11-27T00:37:03.301Z,990.18
2022-11-27T00:38:03.130Z,990.35
2022-11-27T00:39:03.125Z,990.15
2022-11-27T00:40:03.196Z,990.12
2022-11-27T00:41:03.394Z,990.12
2022-11-27T00:42:03.156Z,990.01
2022-11-27T00:43:03.126Z,990.04
2022-11-27T00:44:03.119Z,989.93
2022-11-27T00:45:03.027Z,989.93
2022-11-27T00:46:03.202Z,989.98
2022-11-27T00:47:03.052Z,990.01
2022-11-27T00:48:03.093Z,989.96
2022-11-27T00:49:03.057Z,989.87
2022-11-27T00:50:03.101Z,989.90
2022-11-27T00:51:03.029Z,989.90
2022-11-27T00:52:03.078Z,989.85
2022-11-27T00:53:02.997Z,989.90
2022-11-27T00:54:03.057Z,989.79
2022-11-27T00:55:02.945Z,989.84
2022-11-27T00:56:02.937Z,989.76
2022-11-27T00:57:02.896Z,989.82
2022-11-27T00:58:03.007Z,989.82
2022-11-27T00:59:02.853Z,989.85
2022-11-27T01:00:02.872Z,989.87
2022-11-27T01:01:03.135Z,989.85
2022-11-27T01:02:03.174Z,989.90
2022-11-27T01:03:03.724Z,989.76
2022-11-27T01:04:03.438Z,989.71
2022-11-27T01:05:03.386Z,989.68
2022-11-27T01:06:03.268Z,989.90
2022-11-27T01:07:03.244Z,989.76
2022-11-27T01:08:03.254Z,989.66
2022-11-27T01:09:03.151Z,989.73
2022-11-27T01:10:03.538Z,989.66
2022-11-27T01:11:03.373Z,989.71
2022-11-27T01:12:03.441Z,989.60
2022-11-27T01:13:03.486Z,989.63
2022-11-27T01:14:03.358Z,989.76
2022-11-27T01:15:03.326Z,989.71
2022-11-27T01:16:03.385Z,989.63
2022-11-27T01:17:03.239Z,989.66
2022-11-27T01:18:03.140Z,989.66
2022-11-27T01:19:03.130Z,989.82
2022-11-27T01:20:03.153Z,989.87
2022-11-27T01:21:03.067Z,989.90
2022-11-27T01:22:02.961Z,989.74
2022-11-27T01:23:03.860Z,989.87
2022-11-27T01:24:03.767Z,989.76
2022-11-27T01:25:03.848Z,989.90
2022-11-27T01:26:03.247Z,989.76
2022-11-27T01:27:03.100Z,989.85
2022-11-27T01:28:03.163Z,989.82
2022-11-27T01:29:03.048Z,989.90
2022-11-27T01:30:03.067Z,989.71
2022-11-27T01:31:03.195Z,989.76
2022-11-27T01:32:03.058Z,989.76
2022-11-27T01:33:03.014Z,989.76
2022-11-27T01:34:03.128Z,989.61
2022-11-27T01:35:02.989Z,989.82
2022-11-27T01:36:03.029Z,989.85
2022-11-27T01:37:03.015Z,989.93
2022-11-27T01:38:02.978Z,989.93
2022-11-27T01:39:02.967Z,989.85
2022-11-27T01:40:03.806Z,989.93
2022-11-27T01:41:03.765Z,989.74
2022-11-27T01:42:03.665Z,989.76
2022-11-27T01:43:03.625Z,989.82
2022-11-27T01:44:03.568Z,989.82
2022-11-27T01:45:03.496Z,989.76
2022-11-27T01:46:03.531Z,989.76
2022-11-27T01:47:03.372Z,989.71
2022-11-27T01:48:03.342Z,989.63
2022-11-27T01:49:03.245Z,989.71
2022-11-27T01:50:03.117Z,989.76
2022-11-27T01:51:03.101Z,989.61
2022-11-27T01:52:03.058Z,989.50
2022-11-27T01:53:03.096Z,989.61
2022-11-27T01:54:03.133Z,989.61
2022-11-27T01:55:03.154Z,989.66
2022-11-27T01:56:03.186Z,989.58
2022-11-27T01:57:03.072Z,989.47
2022-11-27T01:58:03.188Z,989.58
2022-11-27T01:59:03.075Z,989.50
2022-11-27T02:00:03.126Z,989.52
2022-11-27T02:01:03.044Z,989.61
2022-11-27T02:02:03.168Z,989.50
2022-11-27T02:03:03.083Z,989.52
2022-11-27T02:04:03.840Z,989.47
2022-11-27T02:05:03.764Z,989.50
2022-11-27T02:06:03.663Z,989.50
2022-11-27T02:07:03.748Z,989.50
2022-11-27T02:08:03.729Z,989.44
2022-11-27T02:09:03.580Z,989.50
2022-11-27T02:10:03.499Z,989.41
2022-11-27T02:11:03.539Z,989.22
2022-11-27T02:12:03.569Z,989.41
2022-11-27T02:13:03.541Z,989.25
2022-11-27T02:14:03.425Z,989.36
2022-11-27T02:15:03.312Z,989.16
2022-11-27T02:16:03.342Z,989.36
2022-11-27T02:17:03.334Z,989.19
2022-11-27T02:19:03.589Z,989.28
2022-11-27T02:20:03.482Z,989.33
2022-11-27T02:21:03.490Z,989.30
2022-11-27T02:22:03.480Z,989.25
2022-11-27T02:23:03.454Z,989.08
2022-11-27T02:24:03.426Z,989.30
2022-11-27T02:25:03.396Z,989.16
2022-11-27T02:26:03.384Z,989.16
2022-11-27T02:27:03.304Z,989.28
2022-11-27T02:28:03.246Z,989.11
2022-11-27T02:29:03.182Z,989.11
2022-11-27T02:30:03.112Z,989.19
2022-11-27T02:31:03.231Z,989.14
2022-11-27T02:32:02.977Z,989.22
2022-11-27T02:33:02.923Z,989.28
2022-11-27T02:34:03.853Z,989.16
2022-11-27T02:35:03.784Z,989.22
2022-11-27T02:36:03.742Z,989.19
2022-11-27T02:37:03.670Z,989.28
2022-11-27T02:38:03.548Z,989.28
2022-11-27T02:39:03.612Z,989.28
2022-11-27T02:40:03.464Z,989.39
2022-11-27T02:41:03.444Z,989.16
2022-11-27T02:42:03.451Z,989.39
2022-11-27T02:43:03.461Z,989.36
2022-11-27T02:44:03.380Z,989.28
2022-11-27T02:45:03.439Z,989.17
2022-11-27T02:46:03.549Z,989.36
2022-11-27T02:47:03.303Z,989.28
2022-11-27T02:48:03.233Z,989.25
2022-11-27T02:49:03.210Z,989.28
2022-11-27T02:50:03.108Z,989.36
2022-11-27T02:51:03.130Z,989.28
2022-11-27T02:52:03.065Z,989.36
2022-11-27T02:53:03.038Z,989.31
2022-11-27T02:54:02.915Z,989.33
2022-11-27T02:55:03.803Z,989.28
2022-11-27T02:56:03.739Z,989.25
2022-11-27T02:57:03.710Z,989.25
2022-11-27T02:58:03.726Z,989.25
2022-11-27T02:59:03.667Z,989.31
2022-11-27T03:00:03.681Z,989.36
2022-11-27T03:01:03.582Z,989.31
2022-11-27T03:02:03.596Z,989.22
2022-11-27T03:03:03.672Z,989.34
2022-11-27T03:04:03.565Z,989.28
2022-11-27T03:05:03.514Z,989.17
2022-11-27T03:06:03.524Z,989.17
2022-11-27T03:07:03.521Z,989.28
2022-11-27T03:08:03.450Z,989.28
2022-11-27T03:09:03.497Z,989.11
2022-11-27T03:10:03.492Z,989.22
2022-11-27T03:11:03.488Z,989.20
2022-11-27T03:12:03.411Z,989.34
2022-11-27T03:13:03.380Z,989.36
2022-11-27T03:14:03.244Z,989.20
2022-11-27T03:15:03.304Z,989.31
2022-11-27T03:16:03.362Z,989.31
2022-11-27T03:17:03.219Z,989.20
2022-11-27T03:18:03.228Z,989.28
2022-11-27T03:19:03.188Z,989.25
2022-11-27T03:20:03.282Z,989.28
2022-11-27T03:21:03.171Z,989.31
2022-11-27T03:22:03.112Z,989.34
2022-11-27T03:23:03.315Z,989.25
2022-11-27T03:24:03.201Z,989.28
2022-11-27T03:25:03.182Z,989.23
2022-11-27T03:26:03.262Z,989.17
2022-11-27T03:27:03.468Z,989.25
2022-11-27T03:28:03.498Z,989.23
2022-11-27T03:29:03.423Z,989.23
2022-11-27T03:30:03.310Z,989.23
2022-11-27T03:31:03.476Z,989.23
2022-11-27T03:32:03.140Z,989.42
2022-11-27T03:33:03.166Z,989.39
2022-11-27T03:34:03.151Z,989.28
2022-11-27T03:35:03.339Z,989.20
2022-11-27T03:36:03.196Z,989.28
2022-11-27T03:37:03.184Z,989.20
2022-11-27T03:38:03.171Z,989.17
2022-11-27T03:39:03.060Z,989.34
2022-11-27T03:40:02.974Z,989.26
2022-11-27T03:41:02.935Z,989.31
2022-11-27T03:42:02.974Z,989.17
2022-11-27T03:43:02.897Z,989.15
2022-11-27T03:44:02.888Z,989.28
2022-11-27T03:45:03.821Z,989.17
2022-11-27T03:46:03.903Z,989.15
2022-11-27T03:47:03.888Z,989.23
2022-11-27T03:48:03.682Z,989.26
2022-11-27T03:49:03.611Z,989.12
2022-11-27T03:50:03.548Z,989.06
2022-11-27T03:51:03.483Z,989.09
2022-11-27T03:52:03.409Z,989.23
2022-11-27T03:53:03.231Z,989.09
2022-11-27T03:54:03.141Z,989.04
2022-11-27T03:55:03.182Z,989.15
2022-11-27T03:56:10.465Z,989.12
2022-11-27T03:57:03.048Z,989.04
2022-11-27T03:58:03.092Z,989.09
2022-11-27T03:59:03.039Z,988.98
2022-11-27T04:00:02.995Z,989.04
2022-11-27T04:01:03.028Z,989.04
2022-11-27T04:02:03.031Z,988.92
2022-11-27T04:03:02.868Z,988.98
2022-11-27T04:04:03.897Z,988.95
2022-11-27T04:05:03.648Z,988.98
2022-11-27T04:06:03.680Z,988.84
2022-11-27T04:07:03.635Z,988.81
2022-11-27T04:08:03.751Z,988.84
2022-11-27T04:09:03.575Z,988.87
2022-11-27T04:10:03.275Z,988.81
2022-11-27T04:11:03.295Z,988.76
2022-11-27T04:12:03.252Z,988.84
2022-11-27T04:13:03.200Z,988.73
2022-11-27T04:14:03.283Z,988.84
2022-11-27T04:15:03.157Z,988.87
2022-11-27T04:16:03.204Z,988.76
2022-11-27T04:17:03.110Z,988.65
2022-11-27T04:18:03.048Z,988.67
2022-11-27T04:19:03.157Z,988.62
2022-11-27T04:20:03.005Z,988.79
2022-11-27T04:21:02.966Z,988.62
2022-11-27T04:22:02.894Z,988.81
2022-11-27T04:23:03.751Z,988.70
2022-11-27T04:24:03.703Z,988.76
2022-11-27T04:25:03.675Z,988.65
2022-11-27T04:26:03.725Z,988.70
2022-11-27T04:27:03.561Z,988.59
2022-11-27T04:28:03.578Z,988.65
2022-11-27T04:29:03.482Z,988.70
2022-11-27T04:30:03.391Z,988.64
2022-11-27T04:31:03.432Z,988.53
2022-11-27T04:32:03.252Z,988.70
2022-11-27T04:33:03.378Z,988.65
2022-11-27T04:34:03.431Z,988.76
2022-11-27T04:35:03.391Z,988.67
2022-11-27T04:36:03.342Z,988.59
2022-11-27T04:37:03.167Z,988.81
2022-11-27T04:38:03.382Z,988.70
2022-11-27T04:39:03.288Z,988.76
2022-11-27T04:40:03.243Z,988.76
2022-11-27T04:41:03.131Z,988.62
2022-11-27T04:42:03.127Z,988.76
2022-11-27T04:43:03.260Z,988.67
2022-11-27T04:44:03.269Z,988.78
2022-11-27T04:45:03.275Z,988.81
2022-11-27T04:46:03.197Z,988.78
2022-11-27T04:47:03.400Z,988.76
2022-11-27T04:48:03.125Z,988.76
2022-11-27T04:49:03.174Z,988.65
2022-11-27T04:50:03.227Z,988.62
2022-11-27T04:51:03.147Z,988.56
2022-11-27T04:52:03.144Z,988.67
2022-11-27T04:53:03.120Z,988.59
2022-11-27T04:54:03.000Z,988.73
2022-11-27T04:55:03.045Z,988.65
2022-11-27T04:56:03.001Z,988.59
2022-11-27T04:57:03.001Z,988.62
2022-11-27T04:58:03.841Z,988.56
2022-11-27T04:59:03.804Z,988.65
2022-11-27T05:00:03.807Z,988.79
2022-11-27T05:01:04.057Z,988.48
2022-11-27T05:02:03.832Z,988.73
2022-11-27T05:03:03.866Z,988.79
2022-11-27T05:04:03.629Z,988.68
2022-11-27T05:05:03.640Z,988.79
2022-11-27T05:06:03.631Z,988.68
2022-11-27T05:07:03.581Z,988.73
2022-11-27T05:08:03.489Z,988.79
2022-11-27T05:09:03.381Z,988.67
2022-11-27T05:10:03.311Z,988.65
2022-11-27T05:11:03.271Z,988.90
2022-11-27T05:12:03.350Z,988.81
2022-11-27T05:13:03.258Z,988.73
2022-11-27T05:14:03.275Z,988.76
2022-11-27T05:15:05.026Z,988.79
2022-11-27T05:16:03.295Z,988.76
2022-11-27T05:17:03.057Z,988.79
2022-11-27T05:18:03.017Z,988.70
2022-11-27T05:19:02.952Z,988.67
2022-11-27T05:20:03.149Z,988.73
2022-11-27T05:21:03.228Z,988.76
2022-11-27T05:22:03.110Z,988.76
2022-11-27T05:23:03.240Z,988.84
2022-11-27T05:24:03.537Z,988.79
2022-11-27T05:25:03.353Z,988.67
2022-11-27T05:26:03.324Z,988.76
2022-11-27T05:27:03.276Z,988.68
2022-11-27T05:28:03.229Z,988.76
2022-11-27T05:29:03.118Z,988.73
2022-11-27T05:30:03.119Z,988.73
2022-11-27T05:31:03.143Z,988.79
2022-11-27T05:32:03.201Z,988.79
2022-11-27T05:33:02.938Z,988.65
2022-11-27T05:34:02.948Z,988.70
2022-11-27T05:35:02.854Z,988.81
2022-11-27T05:36:03.821Z,988.84
2022-11-27T05:37:02.910Z,988.90
2022-11-27T05:38:03.825Z,988.90
2022-11-27T05:39:03.716Z,988.56
2022-11-27T05:40:03.466Z,988.79
2022-11-27T05:41:03.428Z,988.62
2022-11-27T05:42:03.363Z,988.59
2022-11-27T05:43:03.381Z,988.70
2022-11-27T05:44:03.390Z,988.73
2022-11-27T05:45:03.350Z,988.67
2022-11-27T05:46:03.330Z,988.56
2022-11-27T05:47:03.474Z,988.54
2022-11-27T05:48:03.312Z,988.56
2022-11-27T05:49:03.147Z,988.48
2022-11-27T05:50:03.022Z,988.56
2022-11-27T05:51:03.075Z,988.42
2022-11-27T05:52:03.095Z,988.59
2022-11-27T05:53:03.142Z,988.54
2022-11-27T05:54:03.181Z,988.59
2022-11-27T05:55:03.115Z,988.48
2022-11-27T05:56:03.216Z,988.59
2022-11-27T05:57:03.073Z,988.43
2022-11-27T05:58:02.968Z,988.54
2022-11-27T05:59:02.859Z,988.45
2022-11-27T06:00:03.781Z,988.48
2022-11-27T06:01:03.704Z,988.59
2022-11-27T06:02:03.861Z,988.43
2022-11-27T06:03:04.075Z,988.51
2022-11-27T06:04:03.758Z,988.37
2022-11-27T06:05:03.662Z,988.43
2022-11-27T06:06:03.668Z,988.48
2022-11-27T06:07:03.575Z,988.48
2022-11-27T06:08:03.478Z,988.46
2022-11-27T06:09:12.371Z,988.51
2022-11-27T06:10:03.567Z,988.54
2022-11-27T06:11:03.451Z,988.43
2022-11-27T06:12:03.292Z,988.49
2022-11-27T06:13:03.228Z,988.46
2022-11-27T06:14:03.220Z,988.63
2022-11-27T06:15:03.258Z,988.51
2022-11-27T06:16:03.140Z,988.43
2022-11-27T06:17:03.212Z,988.51
2022-11-27T06:18:03.486Z,988.49
2022-11-27T06:19:03.113Z,988.46
2022-11-27T06:20:03.233Z,988.49
2022-11-27T06:21:03.163Z,988.54
2022-11-27T06:22:03.050Z,988.51
2022-11-27T06:23:03.020Z,988.40
2022-11-27T06:24:03.165Z,988.49
2022-11-27T06:25:03.120Z,988.46
2022-11-27T06:26:03.517Z,988.35
2022-11-27T06:27:03.527Z,988.49
2022-11-27T06:28:03.451Z,988.35
2022-11-27T06:29:03.648Z,988.40
2022-11-27T06:30:03.625Z,988.40
2022-11-27T06:31:03.528Z,988.43
2022-11-27T06:32:03.529Z,988.40
2022-11-27T06:33:03.566Z,988.40
2022-11-27T06:34:03.429Z,988.29
2022-11-27T06:35:03.424Z,988.41
2022-11-27T06:36:03.412Z,988.32
2022-11-27T06:37:03.509Z,988.32
2022-11-27T06:38:03.208Z,988.22
2022-11-27T06:39:03.164Z,988.35
2022-11-27T06:40:03.151Z,988.41
2022-11-27T06:41:03.091Z,988.30
2022-11-27T06:42:02.970Z,988.35
2022-11-27T06:43:03.856Z,988.41
2022-11-27T06:44:03.867Z,988.30
2022-11-27T06:45:03.745Z,988.46
2022-11-27T06:46:04.043Z,988.27
2022-11-27T06:47:03.720Z,988.41
2022-11-27T06:48:03.697Z,988.35
2022-11-27T06:49:03.672Z,988.41
2022-11-27T06:50:03.587Z,988.44
2022-11-27T06:51:03.579Z,988.35
2022-11-27T06:52:03.485Z,988.17
2022-11-27T06:53:03.477Z,988.22
2022-11-27T06:54:03.400Z,988.27
2022-11-27T06:55:03.198Z,988.30
2022-11-27T06:56:03.200Z,988.22
2022-11-27T06:57:03.177Z,988.19
2022-11-27T06:58:03.196Z,988.30
2022-11-27T06:59:03.097Z,988.20
2022-11-27T07:00:03.283Z,988.22
2022-11-27T07:01:03.389Z,988.19
2022-11-27T07:02:03.268Z,988.14
2022-11-27T07:03:03.072Z,988.20
2022-11-27T07:04:03.679Z,988.03
2022-11-27T07:05:03.695Z,988.17
2022-11-27T07:06:03.735Z,988.00
2022-11-27T07:07:03.658Z,988.08
2022-11-27T07:08:03.776Z,988.00
2022-11-27T07:09:03.750Z,988.17
2022-11-27T07:10:03.672Z,988.03
2022-11-27T07:11:03.561Z,988.06
2022-11-27T07:12:03.494Z,988.08
2022-11-27T07:13:03.509Z,988.14
2022-11-27T07:14:03.419Z,987.97
2022-11-27T07:15:04.869Z,987.92
2022-11-27T07:16:03.428Z,987.92
2022-11-27T07:17:03.469Z,987.97
2022-11-27T07:18:03.372Z,988.17
2022-11-27T07:19:03.256Z,988.05
2022-11-27T07:20:03.233Z,988.11
2022-11-27T07:21:03.193Z,988.16
2022-11-27T07:22:03.119Z,988.08
2022-11-27T07:23:03.267Z,988.00
2022-11-27T07:24:03.235Z,988.05
2022-11-27T07:25:03.296Z,988.05
2022-11-27T07:26:03.179Z,988.00
2022-11-27T07:27:03.155Z,988.19
2022-11-27T07:28:03.017Z,987.94
2022-11-27T07:29:03.125Z,988.11
2022-11-27T07:30:03.141Z,988.05
2022-11-27T07:31:03.245Z,988.16
2022-11-27T07:32:03.477Z,988.22
2022-11-27T07:33:03.449Z,988.08
2022-11-27T07:34:13.394Z,987.94
2022-11-27T07:35:03.594Z,988.02
2022-11-27T07:36:03.549Z,988.00
2022-11-27T07:37:03.559Z,987.97
2022-11-27T07:38:03.627Z,987.86
2022-11-27T07:39:03.568Z,987.97
2022-11-27T07:40:04.084Z,988.11
2022-11-27T07:41:03.511Z,987.94
2022-11-27T07:42:37.310Z,988.05
2022-11-27T07:43:03.542Z,987.94
2022-11-27T07:44:03.633Z,988.05
2022-11-27T07:45:03.596Z,987.97
2022-11-27T07:46:03.722Z,987.99
2022-11-27T07:47:03.551Z,988.08
2022-11-27T07:48:03.566Z,987.83
2022-11-27T07:49:03.562Z,987.83
2022-11-27T07:50:08.717Z,987.94
2022-11-27T07:51:03.617Z,987.78
2022-11-27T07:52:03.586Z,987.99
2022-11-27T07:53:03.596Z,987.91
2022-11-27T07:54:03.734Z,987.72
2022-11-27T07:55:03.628Z,987.86
2022-11-27T07:56:03.721Z,987.83
2022-11-27T07:57:03.717Z,987.83
2022-11-27T07:58:03.758Z,987.86
2022-11-27T07:59:03.765Z,987.69
2022-11-27T08:00:03.767Z,987.88
2022-11-27T08:01:03.784Z,987.88
2022-11-27T08:02:03.545Z,987.69
2022-11-27T08:03:03.452Z,987.74
2022-11-27T08:04:03.405Z,987.74
2022-11-27T08:05:12.598Z,987.88
2022-11-27T08:06:03.192Z,987.74
2022-11-27T08:07:03.112Z,987.77
2022-11-27T08:08:03.216Z,987.77
2022-11-27T08:09:03.004Z,987.71
2022-11-27T08:10:03.177Z,987.88
2022-11-27T08:11:03.273Z,987.95
2022-11-27T08:12:03.491Z,987.76
2022-11-27T08:13:03.686Z,987.82
2022-11-27T08:14:03.609Z,987.87
2022-11-27T08:15:03.559Z,987.98
2022-11-27T08:16:03.577Z,987.84
2022-11-27T08:17:03.476Z,987.97
2022-11-27T08:18:03.649Z,987.73
2022-11-27T08:19:03.528Z,987.78
2022-11-27T08:20:03.619Z,987.76
2022-11-27T08:21:03.577Z,987.78
2022-11-27T08:22:03.728Z,987.67
2022-11-27T08:23:03.765Z,987.70
2022-11-27T08:24:03.593Z,987.64
2022-11-27T08:25:03.469Z,987.75
2022-11-27T08:26:03.475Z,987.61
2022-11-27T08:27:03.535Z,987.64
2022-11-27T08:28:03.470Z,987.67
2022-11-27T08:29:03.417Z,987.61
2022-11-27T08:30:03.348Z,987.80
2022-11-27T08:31:03.217Z,987.61
2022-11-27T08:32:03.460Z,987.69
2022-11-27T08:33:03.578Z,987.69
2022-11-27T08:34:03.612Z,987.63
2022-11-27T08:35:03.675Z,987.60
2022-11-27T08:36:03.570Z,987.49
2022-11-27T08:37:03.396Z,987.66
2022-11-27T08:38:03.305Z,987.60
2022-11-27T08:39:03.232Z,987.57
2022-11-27T08:40:03.161Z,987.43
2022-11-27T08:41:03.018Z,987.54
2022-11-27T08:42:03.024Z,987.66
2022-11-27T08:43:03.239Z,987.35
2022-11-27T08:44:09.631Z,987.37
2022-11-27T08:45:03.047Z,987.46
2022-11-27T08:46:03.383Z,987.23
2022-11-27T08:47:03.176Z,987.40
2022-11-27T08:48:03.005Z,987.37
2022-11-27T08:49:03.037Z,987.43
2022-11-27T08:50:02.872Z,987.32
2022-11-27T08:51:03.891Z,987.37
2022-11-27T08:52:03.939Z,987.31
2022-11-27T08:53:03.816Z,987.40
2022-11-27T08:54:03.778Z,987.31
2022-11-27T08:55:02.907Z,987.20
2022-11-27T08:56:03.098Z,987.14
2022-11-27T08:57:02.953Z,987.36
2022-11-27T08:58:03.317Z,987.17
2022-11-27T08:59:03.257Z,987.28
2022-11-27T09:00:03.716Z,987.22
2022-11-27T09:01:03.903Z,987.30
2022-11-27T09:02:03.854Z,987.14
2022-11-27T09:03:03.852Z,987.30
2022-11-27T09:04:02.992Z,987.33
2022-11-27T09:05:03.819Z,987.33
2022-11-27T09:06:03.847Z,987.21
2022-11-27T09:07:03.831Z,987.30
2022-11-27T09:08:03.844Z,987.44
2022-11-27T09:09:03.844Z,987.21
2022-11-27T09:10:03.862Z,987.24
2022-11-27T09:11:03.748Z,987.29
2022-11-27T09:12:03.721Z,987.18
2022-11-27T09:13:03.723Z,987.24
2022-11-27T09:14:03.652Z,987.24
2022-11-27T09:15:03.601Z,987.29
2022-11-27T09:16:03.747Z,987.26
2022-11-27T09:17:03.757Z,987.34
2022-11-27T09:19:03.530Z,987.23
2022-11-27T09:20:03.536Z,987.17
2022-11-27T09:21:03.444Z,987.31
2022-11-27T09:22:03.365Z,987.25
2022-11-27T09:23:03.498Z,987.25
2022-11-27T09:24:03.493Z,987.33
2022-11-27T09:25:03.601Z,987.31
2022-11-27T09:26:03.804Z,987.30
2022-11-27T09:27:04.147Z,987.33
2022-11-27T09:28:03.745Z,987.19
2022-11-27T09:29:04.030Z,987.36
2022-11-27T09:30:03.775Z,987.13
2022-11-27T09:31:03.676Z,987.19
2022-11-27T09:32:03.890Z,987.21
2022-11-27T09:33:03.081Z,987.27
2022-11-27T09:34:03.104Z,987.24
2022-11-27T09:35:03.365Z,987.13
2022-11-27T09:36:03.262Z,987.07
2022-11-27T09:37:03.374Z,987.07
2022-11-27T09:38:03.302Z,987.15
2022-11-27T09:39:03.128Z,987.15
2022-11-27T09:40:03.163Z,987.18
2022-11-27T09:41:03.746Z,987.18
2022-11-27T09:42:03.265Z,987.15
2022-11-27T09:43:03.276Z,987.31
2022-11-27T09:44:03.474Z,987.00
2022-11-27T09:45:03.666Z,987.20
2022-11-27T09:46:03.742Z,987.26
2022-11-27T09:47:03.688Z,987.14
2022-11-27T09:48:03.791Z,987.23
2022-11-27T09:49:03.526Z,987.14
2022-11-27T09:50:03.585Z,987.06
2022-11-27T09:51:03.431Z,987.14
2022-11-27T09:52:03.593Z,987.08
2022-11-27T09:53:04.131Z,987.14
2022-11-27T09:54:03.635Z,987.25
2022-11-27T09:55:03.484Z,987.22
2022-11-27T09:56:03.711Z,987.11
2022-11-27T09:57:03.610Z,987.19
2022-11-27T09:58:03.941Z,987.22
2022-11-27T09:59:03.870Z,987.16
2022-11-27T10:00:03.030Z,987.30
2022-11-27T10:01:03.041Z,987.16
2022-11-27T10:02:03.238Z,987.16
2022-11-27T10:03:04.243Z,987.10
2022-11-27T10:04:03.809Z,987.18
2022-11-27T10:05:15.002Z,987.15
2022-11-27T10:06:03.718Z,987.07
2022-11-27T10:07:03.617Z,986.95
2022-11-27T10:08:07.519Z,987.04
2022-11-27T10:09:03.375Z,986.95
2022-11-27T10:10:03.388Z,987.12
2022-11-27T10:11:03.484Z,986.92
2022-11-27T10:12:03.456Z,987.00
2022-11-27T10:13:03.593Z,986.86
2022-11-27T10:14:03.696Z,986.80
2022-11-27T10:15:03.620Z,986.86
2022-11-27T10:16:03.679Z,986.89
2022-11-27T10:17:03.881Z,986.83
2022-11-27T10:18:03.609Z,986.83
2022-11-27T10:19:03.623Z,986.71
2022-11-27T10:20:03.955Z,986.82
2022-11-27T10:21:03.786Z,986.74
2022-11-27T10:22:03.923Z,986.71
2022-11-27T10:23:03.726Z,986.68
2022-11-27T10:24:03.765Z,986.79
2022-11-27T10:25:03.655Z,986.76
2022-11-27T10:26:03.674Z,986.68
2022-11-27T10:27:03.931Z,986.65
2022-11-27T10:28:03.949Z,986.71
2022-11-27T10:29:04.211Z,986.59
2022-11-27T10:30:03.959Z,986.70
2022-11-27T10:31:03.146Z,986.65
2022-11-27T10:32:03.469Z,986.59
2022-11-27T10:33:03.197Z,986.56
2022-11-27T10:34:02.912Z,986.61
2022-11-27T10:35:03.890Z,986.58
2022-11-27T10:36:03.302Z,986.64
2022-11-27T10:37:03.672Z,986.54
2022-11-27T10:38:07.439Z,986.67
2022-11-27T10:39:03.805Z,986.53
2022-11-27T10:40:03.816Z,986.69
2022-11-27T10:41:03.874Z,986.78
2022-11-27T10:42:03.817Z,986.72
2022-11-27T10:43:03.842Z,986.58
2022-11-27T10:44:03.808Z,986.60
2022-11-27T10:45:03.780Z,986.60
2022-11-27T10:46:04.143Z,986.63
2022-11-27T10:47:03.877Z,986.55
2022-11-27T10:48:03.694Z,986.53
2022-11-27T10:49:03.608Z,986.50
2022-11-27T10:50:03.480Z,986.50
2022-11-27T10:51:03.538Z,986.47
2022-11-27T10:52:03.562Z,986.41
2022-11-27T10:53:03.494Z,986.41
2022-11-27T10:54:03.429Z,986.41
2022-11-27T10:55:03.618Z,986.30
2022-11-27T10:56:03.470Z,986.24
2022-11-27T10:57:03.440Z,986.41
2022-11-27T10:58:03.334Z,986.32
2022-11-27T10:59:03.489Z,986.32
2022-11-27T11:00:03.456Z,986.18
2022-11-27T11:01:04.004Z,986.29
2022-11-27T11:02:03.708Z,986.29
2022-11-27T11:03:03.648Z,986.29
2022-11-27T11:04:37.341Z,986.26
2022-11-27T11:05:45.346Z,986.29
2022-11-27T11:06:22.917Z,986.12
2022-11-27T11:07:03.600Z,986.20
2022-11-27T11:08:03.648Z,986.12
2022-11-27T11:09:03.544Z,986.03
2022-11-27T11:10:03.479Z,986.06
2022-11-27T11:11:03.583Z,986.14
2022-11-27T11:12:03.488Z,986.11
2022-11-27T11:13:03.704Z,986.08
2022-11-27T11:14:03.804Z,986.03
2022-11-27T11:15:03.586Z,986.22
2022-11-27T11:16:03.858Z,986.14
2022-11-27T11:17:03.878Z,986.17
2022-11-27T11:18:03.869Z,986.00
2022-11-27T11:19:08.169Z,986.05
2022-11-27T11:20:03.150Z,985.99
2022-11-27T11:21:03.197Z,985.97
2022-11-27T11:22:03.363Z,986.02
2022-11-27T11:23:03.416Z,986.02
2022-11-27T11:24:03.484Z,985.96
2022-11-27T11:25:08.671Z,986.02
2022-11-27T11:26:03.686Z,985.99
2022-11-27T11:27:03.840Z,986.02
2022-11-27T11:28:04.010Z,986.05
2022-11-27T11:29:03.884Z,986.10
2022-11-27T11:30:03.878Z,985.96
2022-11-27T11:31:03.960Z,986.02
2022-11-27T11:32:03.952Z,985.99
2022-11-27T11:33:03.795Z,986.16
2022-11-27T11:34:03.858Z,986.07
2022-11-27T11:35:03.046Z,986.10
2022-11-27T11:36:03.358Z,986.15
2022-11-27T11:37:03.177Z,986.15
2022-11-27T11:38:03.380Z,986.10
2022-11-27T11:39:03.574Z,986.13
2022-11-27T11:40:16.500Z,986.13
2022-11-27T11:41:03.658Z,986.01
2022-11-27T11:42:03.699Z,986.07
2022-11-27T11:43:03.658Z,986.12
2022-11-27T11:44:03.717Z,986.24
2022-11-27T11:45:03.717Z,986.18
2022-11-27T11:46:04.141Z,986.21
2022-11-27T11:47:03.831Z,986.09
2022-11-27T11:48:04.039Z,985.98
2022-11-27T11:49:09.047Z,986.01
2022-11-27T11:50:03.949Z,985.92
2022-11-27T11:51:02.937Z,986.15
2022-11-27T11:52:03.277Z,985.98
2022-11-27T11:53:03.349Z,985.89
2022-11-27T11:54:03.389Z,985.89
2022-11-27T11:55:03.546Z,985.95
2022-11-27T11:56:03.892Z,985.86
2022-11-27T11:57:03.818Z,985.83
2022-11-27T11:58:03.669Z,985.86
2022-11-27T11:59:03.708Z,985.81
2022-11-27T12:00:03.749Z,985.86
2022-11-27T12:01:27.713Z,985.92
2022-11-27T12:02:03.005Z,985.86
2022-11-27T12:03:03.487Z,985.86
2022-11-27T12:04:03.463Z,985.92
2022-11-27T12:05:03.515Z,985.80
2022-11-27T12:06:03.542Z,985.86
2022-11-27T12:07:03.502Z,985.72
2022-11-27T12:08:03.713Z,985.89
2022-11-27T12:09:03.854Z,985.77
2022-11-27T12:10:03.808Z,985.89
2022-11-27T12:11:03.783Z,985.83
2022-11-27T12:12:03.714Z,985.72
2022-11-27T12:13:03.974Z,985.80
2022-11-27T12:14:03.017Z,985.83
2022-11-27T12:15:08.348Z,985.83
2022-11-27T12:16:03.392Z,985.83
2022-11-27T12:17:03.660Z,985.94
2022-11-27T12:18:03.714Z,985.69
2022-11-27T12:19:03.590Z,985.83
2022-11-27T12:20:03.605Z,985.74
2022-11-27T12:21:03.782Z,985.86
2022-11-27T12:22:03.743Z,985.83
2022-11-27T12:23:03.767Z,985.86
2022-11-27T12:24:02.869Z,985.86
2022-11-27T12:25:03.134Z,985.80
2022-11-27T12:26:08.323Z,985.88
2022-11-27T12:27:03.646Z,985.88
2022-11-27T12:28:03.515Z,985.80
2022-11-27T12:29:03.775Z,985.80
2022-11-27T12:30:03.810Z,985.83